Time;durP1;ratioP1;P1;durP2;ratioP2;P2;SDS_P1;SDS_P2;PMS_P1;PMS_P2;Temp;Humidity;BMP_temperature;BMP_pressure;BME280_temperature;BME280_humidity;BME280_pressure;Samples;Min_cycle;Max_cycle;Signal;HPM_P1;HPM_P2
2023/09/08 00:02:25;;;;;;;12.27;7.93;;;;;;;;;;5041283;28;20064;-84
2023/09/08 00:04:51;;;;;;;13.57;8.43;;;;;;;;;;5041093;28;20041;-84
2023/09/08 00:07:17;;;;;;;12.80;8.57;;;;;;;;;;5039384;28;20498;-85
2023/09/08 00:09:43;;;;;;;12.48;7.95;;;;;;;;;;5039753;28;20045;-85
2023/09/08 00:12:09;;;;;;;11.57;8.70;;;;;;;;;;5039667;28;20500;-85
2023/09/08 00:14:35;;;;;;;10.98;8.57;;;;;;;;;;5038903;28;20097;-85
2023/09/08 00:17:02;;;;;;;10.90;9.07;;;;;;;;;;5042197;28;20057;-85
2023/09/08 00:19:28;;;;;;;13.35;8.40;;;;;;;;;;5031336;28;20084;-85
2023/09/08 00:21:54;;;;;;;13.73;8.93;;;;;;;;;;5038107;28;20044;-85
2023/09/08 00:24:20;;;;;;;11.80;9.05;;;;;;;;;;5020560;28;20049;-85
2023/09/08 00:26:46;;;;;;;10.00;8.20;;;;;;;;;;5037519;28;20049;-85
2023/09/08 00:29:12;;;;;;;11.15;9.13;;;;;;;;;;5038712;28;20050;-85
2023/09/08 00:31:38;;;;;;;11.10;8.40;;;;;;;;;;5033538;28;20499;-85
2023/09/08 00:34:05;;;;;;;12.05;9.23;;;;;;;;;;5039288;28;20037;-85
2023/09/08 00:36:31;;;;;;;10.35;8.55;;;;;;;;;;5039303;28;20077;-85
2023/09/08 00:38:57;;;;;;;10.63;8.15;;;;;;;;;;5019636;28;20042;-85
2023/09/08 00:41:23;;;;;;;10.00;8.50;;;;;;;;;;5035688;28;20054;-85
2023/09/08 00:43:50;;;;;;;12.00;8.88;;;;;;;;;;5035889;28;20400;-85
2023/09/08 00:46:16;;;;;;;12.32;8.85;;;;;;;;;;5020155;28;20125;-85
2023/09/08 00:48:43;;;;;;;12.25;9.23;;;;;;;;;;5021265;28;20542;-84
2023/09/08 00:51:12;;;;;;;11.32;8.93;;;;;;;;;;5039161;28;20496;-85
2023/09/08 00:53:38;;;;;;;12.07;8.65;;;;;;;;;;5006666;28;20045;-85
2023/09/08 00:56:05;;;;;;;12.93;8.40;;;;;;;;;;5036999;28;20042;-85
2023/09/08 00:58:31;;;;;;;14.07;8.82;;;;;;;;;;5022131;28;20136;-85
2023/09/08 01:00:57;;;;;;;11.55;8.38;;;;;;;;;;5038430;28;20045;-84
2023/09/08 01:03:24;;;;;;;11.02;8.23;;;;;;;;;;5035659;28;20107;-85
2023/09/08 01:05:50;;;;;;;13.15;8.45;;;;;;;;;;5037354;28;20041;-85
2023/09/08 01:08:17;;;;;;;9.95;8.45;;;;;;;;;;5038486;28;20041;-85
2023/09/08 01:10:43;;;;;;;11.27;8.70;;;;;;;;;;5038831;28;20103;-85
2023/09/08 01:13:11;;;;;;;12.10;8.75;;;;;;;;;;5037524;28;20454;-85
2023/09/08 01:15:41;;;;;;;9.75;8.60;;;;;;;;;;5038237;28;20045;-85
2023/09/08 01:18:07;;;;;;;11.40;9.05;;;;;;;;;;5020600;28;20052;-86
2023/09/08 01:21:02;;;;;;;12.15;8.88;;;;;;;;;;5039481;28;20068;-85
2023/09/08 01:23:33;;;;;;;11.00;9.10;;;;;;;;;;5038130;28;20045;-85
2023/09/08 01:26:05;;;;;;;11.60;8.85;;;;;;;;;;5038363;28;20069;-85
2023/09/08 01:28:32;;;;;;;13.75;8.85;;;;;;;;;;5036276;28;20120;-85
2023/09/08 01:31:01;;;;;;;12.45;8.27;;;;;;;;;;5039581;28;20042;-85
2023/09/08 01:33:28;;;;;;;11.63;9.13;;;;;;;;;;5037107;28;20045;-85
2023/09/08 01:35:54;;;;;;;12.75;8.93;;;;;;;;;;5038220;28;20101;-85
2023/09/08 01:38:21;;;;;;;12.20;8.27;;;;;;;;;;5036022;28;20100;-85
2023/09/08 01:40:47;;;;;;;11.60;8.90;;;;;;;;;;5037688;28;20080;-85
2023/09/08 01:43:13;;;;;;;10.13;8.73;;;;;;;;;;5035727;28;20037;-85
2023/09/08 01:45:39;;;;;;;12.73;9.00;;;;;;;;;;5030393;28;20038;-86
2023/09/08 01:48:06;;;;;;;13.15;9.35;;;;;;;;;;5028638;28;20037;-85
2023/09/08 01:50:32;;;;;;;11.75;9.63;;;;;;;;;;5038008;28;20051;-85
2023/09/08 01:52:58;;;;;;;13.70;9.25;;;;;;;;;;5037389;28;20049;-85
2023/09/08 01:55:24;;;;;;;16.85;10.30;;;;;;;;;;5036201;28;20042;-85
2023/09/08 01:57:50;;;;;;;12.65;9.45;;;;;;;;;;5018202;28;20041;-85
2023/09/08 02:00:16;;;;;;;12.05;9.40;;;;;;;;;;5017670;28;20049;-85
2023/09/08 02:02:42;;;;;;;11.93;9.30;;;;;;;;;;5036364;28;20045;-85
2023/09/08 02:05:09;;;;;;;14.45;10.48;;;;;;;;;;5037166;28;20492;-85
2023/09/08 02:07:35;;;;;;;11.30;9.13;;;;;;;;;;5036292;28;20053;-85
2023/09/08 02:10:01;;;;;;;13.35;10.00;;;;;;;;;;5037061;28;20504;-85
2023/09/08 02:12:27;;;;;;;11.90;9.45;;;;;;;;;;5036608;28;20038;-85
2023/09/08 02:14:53;;;;;;;11.43;9.80;;;;;;;;;;5036317;28;20072;-85
2023/09/08 02:17:19;;;;;;;14.40;10.63;;;;;;;;;;5037380;28;20053;-85
2023/09/08 02:19:45;;;;;;;11.63;10.20;;;;;;;;;;5035682;28;20094;-85
2023/09/08 02:22:11;;;;;;;14.20;9.88;;;;;;;;;;5036431;28;20079;-85
2023/09/08 02:24:37;;;;;;;11.60;10.38;;;;;;;;;;5037037;28;20038;-85
2023/09/08 02:27:04;;;;;;;11.70;10.50;;;;;;;;;;5035014;28;20041;-85
2023/09/08 02:29:30;;;;;;;14.05;10.10;;;;;;;;;;5035174;28;20045;-85
2023/09/08 02:31:56;;;;;;;13.40;10.10;;;;;;;;;;5020376;28;20381;-85
2023/09/08 02:34:22;;;;;;;12.65;9.88;;;;;;;;;;5035485;28;20091;-85
2023/09/08 02:36:50;;;;;;;13.38;10.27;;;;;;;;;;5037491;28;20049;-84
2023/09/08 02:39:16;;;;;;;13.00;10.30;;;;;;;;;;5035087;28;20076;-85
2023/09/08 02:41:43;;;;;;;13.05;10.52;;;;;;;;;;5037388;28;20053;-85
2023/09/08 02:44:09;;;;;;;14.73;10.68;;;;;;;;;;5035936;28;20427;-85
2023/09/08 02:46:35;;;;;;;11.43;9.75;;;;;;;;;;5037739;28;20045;-85
2023/09/08 02:49:01;;;;;;;12.25;10.13;;;;;;;;;;5037090;28;20045;-85
2023/09/08 02:51:27;;;;;;;13.32;10.50;;;;;;;;;;5036355;28;20037;-85
2023/09/08 02:53:53;;;;;;;15.95;10.68;;;;;;;;;;5035393;28;20041;-85
2023/09/08 02:56:19;;;;;;;16.58;10.80;;;;;;;;;;5034250;28;20511;-85
2023/09/08 02:58:45;;;;;;;12.40;9.52;;;;;;;;;;5036640;28;20125;-85
2023/09/08 03:01:20;;;;;;;12.40;10.50;;;;;;;;;;5037883;28;20488;-85
2023/09/08 03:03:47;;;;;;;12.40;10.05;;;;;;;;;;5019493;28;20057;-85
2023/09/08 03:06:14;;;;;;;12.73;11.02;;;;;;;;;;5037425;28;20044;-86
2023/09/08 03:08:40;;;;;;;13.07;11.73;;;;;;;;;;5036527;28;20041;-85
2023/09/08 03:11:06;;;;;;;12.05;10.75;;;;;;;;;;5035351;28;20124;-85
2023/09/08 03:13:34;;;;;;;11.70;10.48;;;;;;;;;;5022231;28;20484;-85
2023/09/08 03:16:07;;;;;;;13.18;10.57;;;;;;;;;;5037024;28;20049;-85
2023/09/08 03:18:33;;;;;;;12.70;10.43;;;;;;;;;;5038750;28;20060;-84
2023/09/08 03:21:08;;;;;;;12.25;10.80;;;;;;;;;;5041453;28;20042;-86
2023/09/08 03:23:35;;;;;;;12.43;10.60;;;;;;;;;;5040916;28;20052;-86
2023/09/08 03:26:02;;;;;;;11.13;9.98;;;;;;;;;;5022085;28;20050;-85
2023/09/08 03:28:28;;;;;;;12.10;10.55;;;;;;;;;;5021761;28;20041;-85
2023/09/08 03:30:54;;;;;;;12.15;10.77;;;;;;;;;;5039680;28;20041;-86
2023/09/08 03:33:20;;;;;;;14.02;11.43;;;;;;;;;;5040759;28;20041;-85
2023/09/08 03:35:46;;;;;;;14.18;11.63;;;;;;;;;;5039643;28;20037;-85
2023/09/08 03:38:12;;;;;;;12.70;11.15;;;;;;;;;;5039706;28;20045;-85
2023/09/08 03:40:38;;;;;;;15.40;11.38;;;;;;;;;;5039642;28;20045;-85
2023/09/08 03:43:05;;;;;;;14.02;10.70;;;;;;;;;;5040345;28;20048;-86
2023/09/08 03:45:31;;;;;;;13.45;10.88;;;;;;;;;;5036430;28;20400;-85
2023/09/08 03:47:57;;;;;;;13.73;12.00;;;;;;;;;;5040070;28;20101;-85
2023/09/08 03:50:23;;;;;;;13.27;11.70;;;;;;;;;;5038434;28;20060;-85
2023/09/08 03:52:49;;;;;;;14.20;12.10;;;;;;;;;;5040466;28;20037;-85
2023/09/08 03:55:16;;;;;;;14.60;12.43;;;;;;;;;;5038222;28;20049;-85
2023/09/08 03:57:42;;;;;;;16.60;12.13;;;;;;;;;;5036967;28;20060;-85
2023/09/08 04:00:12;;;;;;;14.30;12.80;;;;;;;;;;5034012;28;20067;-85
2023/09/08 04:02:38;;;;;;;14.60;13.10;;;;;;;;;;5020838;28;20080;-85
2023/09/08 04:05:04;;;;;;;13.82;12.20;;;;;;;;;;5038965;28;20045;-85
2023/09/08 04:07:30;;;;;;;15.00;12.73;;;;;;;;;;5039695;28;20041;-85
2023/09/08 04:09:56;;;;;;;13.93;12.52;;;;;;;;;;5039969;28;20128;-85
2023/09/08 04:12:22;;;;;;;15.50;12.98;;;;;;;;;;5039001;28;20434;-84
2023/09/08 04:14:49;;;;;;;16.05;12.35;;;;;;;;;;5036414;28;20041;-85
2023/09/08 04:17:15;;;;;;;17.73;12.50;;;;;;;;;;5036892;28;20065;-85
2023/09/08 04:19:41;;;;;;;14.85;12.45;;;;;;;;;;5019680;28;20041;-85
2023/09/08 04:22:07;;;;;;;13.73;11.85;;;;;;;;;;5036939;28;20071;-85
2023/09/08 04:24:36;;;;;;;14.45;11.93;;;;;;;;;;5041455;28;20041;-84
2023/09/08 04:27:05;;;;;;;14.85;12.40;;;;;;;;;;5037477;28;20045;-85
2023/09/08 04:29:33;;;;;;;14.10;12.35;;;;;;;;;;5033463;28;20488;-85
2023/09/08 04:32:08;;;;;;;15.75;12.35;;;;;;;;;;5036602;28;20465;-85
2023/09/08 04:34:36;;;;;;;14.35;12.45;;;;;;;;;;5036537;28;20488;-85
2023/09/08 04:37:02;;;;;;;14.00;12.23;;;;;;;;;;5036675;28;20511;-84
2023/09/08 04:39:28;;;;;;;13.52;12.13;;;;;;;;;;5037137;28;20076;-85
2023/09/08 04:41:54;;;;;;;14.10;12.18;;;;;;;;;;5038266;28;20041;-85
2023/09/08 04:44:20;;;;;;;15.70;12.57;;;;;;;;;;5038336;28;20056;-85
2023/09/08 04:46:46;;;;;;;16.90;12.68;;;;;;;;;;5036125;28;20041;-85
2023/09/08 04:49:12;;;;;;;13.80;12.38;;;;;;;;;;5038291;28;20046;-85
2023/09/08 04:51:38;;;;;;;14.23;12.20;;;;;;;;;;5036447;28;20411;-85
2023/09/08 04:54:04;;;;;;;14.23;11.98;;;;;;;;;;5037876;28;20385;-84
2023/09/08 04:56:30;;;;;;;15.80;12.93;;;;;;;;;;5017152;28;20048;-85
2023/09/08 04:58:57;;;;;;;14.48;12.98;;;;;;;;;;5037402;28;20049;-85
2023/09/08 05:01:26;;;;;;;14.77;13.27;;;;;;;;;;5036328;28;20046;-85
2023/09/08 05:03:52;;;;;;;16.33;13.13;;;;;;;;;;5037648;28;20045;-86
2023/09/08 05:06:18;;;;;;;15.98;13.63;;;;;;;;;;5032719;28;20064;-86
2023/09/08 05:08:45;;;;;;;14.25;12.85;;;;;;;;;;5035308;28;20045;-85
2023/09/08 05:11:11;;;;;;;15.13;13.63;;;;;;;;;;5037039;28;20057;-86
2023/09/08 05:13:37;;;;;;;16.92;13.18;;;;;;;;;;5034526;28;20041;-85
2023/09/08 05:16:11;;;;;;;15.40;13.80;;;;;;;;;;5035881;28;20080;-85
2023/09/08 05:18:40;;;;;;;15.43;13.30;;;;;;;;;;5035734;28;20057;-85
2023/09/08 05:21:07;;;;;;;15.88;13.75;;;;;;;;;;5037578;28;20069;-85
2023/09/08 05:23:33;;;;;;;15.25;13.50;;;;;;;;;;5011093;28;20084;-86
2023/09/08 05:25:59;;;;;;;14.60;13.07;;;;;;;;;;5037737;28;20098;-85
2023/09/08 05:28:25;;;;;;;14.50;13.05;;;;;;;;;;5037706;28;20052;-86
2023/09/08 05:30:51;;;;;;;15.00;13.00;;;;;;;;;;5035390;28;20040;-86
2023/09/08 05:33:18;;;;;;;15.45;13.10;;;;;;;;;;5033579;28;20060;-87
2023/09/08 05:35:45;;;;;;;17.52;13.40;;;;;;;;;;5007527;28;20392;-85
2023/09/08 05:38:11;;;;;;;13.75;12.32;;;;;;;;;;5033732;28;20052;-85
2023/09/08 05:40:40;;;;;;;14.88;12.15;;;;;;;;;;5033483;28;20041;-86
2023/09/08 05:43:06;;;;;;;14.40;11.65;;;;;;;;;;5035115;28;20118;-86
2023/09/08 05:45:32;;;;;;;13.57;11.23;;;;;;;;;;5034917;28;20095;-86
2023/09/08 05:47:58;;;;;;;14.40;10.57;;;;;;;;;;5033409;28;20045;-84
2023/09/08 05:50:24;;;;;;;15.35;10.85;;;;;;;;;;5036613;28;20049;-86
2023/09/08 05:52:51;;;;;;;14.40;11.18;;;;;;;;;;5030666;28;20064;-87
2023/09/08 05:55:17;;;;;;;11.60;10.30;;;;;;;;;;5029470;28;20037;-85
2023/09/08 05:57:44;;;;;;;11.48;9.63;;;;;;;;;;5036805;28;20404;-87
2023/09/08 06:00:10;;;;;;;11.35;9.57;;;;;;;;;;5036129;28;20122;-84
2023/09/08 06:02:36;;;;;;;11.20;9.57;;;;;;;;;;5038154;28;20045;-84
2023/09/08 06:05:03;;;;;;;11.45;10.15;;;;;;;;;;5018878;28;20049;-86
2023/09/08 06:07:29;;;;;;;12.40;9.15;;;;;;;;;;5035240;28;20045;-84
2023/09/08 06:09:56;;;;;;;11.85;9.65;;;;;;;;;;5036882;28;20117;-83
2023/09/08 06:12:22;;;;;;;13.13;10.00;;;;;;;;;;5036651;28;20041;-84
2023/09/08 06:14:48;;;;;;;11.52;10.15;;;;;;;;;;5023431;28;20060;-83
2023/09/08 06:17:14;;;;;;;12.13;10.45;;;;;;;;;;5033798;28;20049;-83
2023/09/08 06:19:40;;;;;;;12.80;9.98;;;;;;;;;;5018692;28;20114;-83
2023/09/08 06:22:06;;;;;;;11.60;8.65;;;;;;;;;;5035201;28;20408;-83
2023/09/08 06:24:32;;;;;;;13.68;9.65;;;;;;;;;;5034221;28;20045;-84
2023/09/08 06:26:58;;;;;;;14.25;9.85;;;;;;;;;;5034598;28;20049;-84
2023/09/08 06:29:24;;;;;;;12.32;10.00;;;;;;;;;;5034530;28;20052;-84
2023/09/08 06:31:50;;;;;;;11.43;9.32;;;;;;;;;;5034447;28;20049;-83
2023/09/08 06:34:20;;;;;;;10.88;9.63;;;;;;;;;;5030215;28;20099;-85
2023/09/08 06:36:46;;;;;;;12.07;9.40;;;;;;;;;;5015363;28;20093;-81
2023/09/08 06:39:12;;;;;;;10.02;9.00;;;;;;;;;;5034923;28;20048;-82
2023/09/08 06:41:38;;;;;;;11.20;9.18;;;;;;;;;;5034024;28;20489;-83
2023/09/08 06:44:04;;;;;;;11.70;10.50;;;;;;;;;;5037219;28;20088;-84
2023/09/08 06:46:31;;;;;;;15.80;9.65;;;;;;;;;;5035984;28;20384;-83
2023/09/08 06:48:57;;;;;;;12.88;9.13;;;;;;;;;;5035903;28;20053;-83
2023/09/08 06:51:23;;;;;;;12.00;9.00;;;;;;;;;;5036536;28;20061;-83
2023/09/08 06:53:59;;;;;;;13.52;9.27;;;;;;;;;;5034648;28;20582;-83
2023/09/08 06:56:26;;;;;;;13.40;9.00;;;;;;;;;;5035293;28;20052;-84
2023/09/08 06:58:52;;;;;;;12.82;9.25;;;;;;;;;;5035239;28;20060;-83
2023/09/08 07:01:18;;;;;;;10.48;8.93;;;;;;;;;;5034751;28;20389;-83
2023/09/08 07:03:45;;;;;;;9.82;8.85;;;;;;;;;;5034693;28;20120;-83
2023/09/08 07:06:11;;;;;;;10.25;9.25;;;;;;;;;;5034756;28;20053;-84
2023/09/08 07:08:37;;;;;;;12.10;8.55;;;;;;;;;;5008731;28;20045;-83
2023/09/08 07:11:03;;;;;;;10.13;8.07;;;;;;;;;;5030734;28;20041;-84
2023/09/08 07:13:29;;;;;;;11.18;8.50;;;;;;;;;;5032780;28;20477;-84
2023/09/08 07:15:55;;;;;;;11.68;8.35;;;;;;;;;;5028026;28;20053;-84
2023/09/08 07:18:21;;;;;;;11.95;8.05;;;;;;;;;;5037266;28;20128;-85
2023/09/08 07:20:51;;;;;;;9.18;7.78;;;;;;;;;;5036120;28;20507;-84
2023/09/08 07:23:18;;;;;;;13.82;7.53;;;;;;;;;;5036306;28;20045;-85
2023/09/08 07:25:48;;;;;;;58.50;10.13;;;;;;;;;;5032880;28;20045;-86
2023/09/08 07:28:14;;;;;;;16.27;8.18;;;;;;;;;;5036857;28;20164;-85
2023/09/08 07:30:40;;;;;;;41.28;9.73;;;;;;;;;;5035079;28;20046;-87
2023/09/08 07:33:06;;;;;;;14.52;7.38;;;;;;;;;;5037040;28;20199;-87
2023/09/08 07:35:32;;;;;;;10.35;7.90;;;;;;;;;;5003006;28;20469;-86
2023/09/08 07:37:58;;;;;;;10.95;7.78;;;;;;;;;;5031386;28;20068;-85
2023/09/08 07:40:24;;;;;;;9.48;7.85;;;;;;;;;;5035451;28;20045;-87
2023/09/08 07:42:51;;;;;;;11.80;7.97;;;;;;;;;;5021706;28;20053;-87
2023/09/08 07:45:17;;;;;;;11.00;7.53;;;;;;;;;;5034114;28;20053;-87
2023/09/08 07:47:45;;;;;;;11.43;7.40;;;;;;;;;;5036605;28;20037;-86
2023/09/08 07:50:22;;;;;;;15.20;8.00;;;;;;;;;;5037114;28;20232;-86
2023/09/08 07:52:51;;;;;;;11.68;7.20;;;;;;;;;;5006793;28;20037;-88
2023/09/08 07:55:17;;;;;;;15.30;7.60;;;;;;;;;;5026136;28;20049;-86
2023/09/08 07:57:44;;;;;;;10.45;7.25;;;;;;;;;;5022237;28;20049;-87
2023/09/08 08:00:10;;;;;;;14.85;8.25;;;;;;;;;;5022446;28;20680;-86
2023/09/08 08:02:39;;;;;;;19.00;7.93;;;;;;;;;;5020521;28;20046;-87
2023/09/08 08:05:06;;;;;;;10.13;7.30;;;;;;;;;;5025481;28;20055;-87
2023/09/08 08:07:32;;;;;;;12.75;7.68;;;;;;;;;;5040938;28;20460;-84
2023/09/08 08:10:01;;;;;;;9.63;7.53;;;;;;;;;;5040281;28;20123;-86
2023/09/08 08:12:28;;;;;;;10.73;7.28;;;;;;;;;;5040251;28;20439;-85
2023/09/08 08:14:54;;;;;;;12.27;8.05;;;;;;;;;;5030100;28;20404;-85
2023/09/08 08:17:20;;;;;;;11.55;7.05;;;;;;;;;;5039505;28;20423;-85
2023/09/08 08:19:47;;;;;;;12.15;7.15;;;;;;;;;;5024148;28;20060;-84
2023/09/08 08:22:13;;;;;;;12.10;7.30;;;;;;;;;;5039998;28;20048;-85
2023/09/08 08:24:39;;;;;;;13.13;7.28;;;;;;;;;;5039117;28;20049;-85
2023/09/08 08:27:05;;;;;;;11.35;7.43;;;;;;;;;;5038570;28;20445;-84
2023/09/08 08:29:31;;;;;;;12.80;7.10;;;;;;;;;;5037770;28;20518;-84
2023/09/08 08:31:57;;;;;;;10.35;7.38;;;;;;;;;;5040263;28;20053;-84
2023/09/08 08:34:23;;;;;;;13.60;7.55;;;;;;;;;;5037859;28;20125;-84
2023/09/08 08:36:49;;;;;;;11.88;7.28;;;;;;;;;;5031389;28;20112;-84
2023/09/08 08:39:15;;;;;;;10.30;6.85;;;;;;;;;;5034609;28;20050;-85
2023/09/08 08:41:41;;;;;;;10.48;6.80;;;;;;;;;;5034930;28;20052;-81
2023/09/08 08:44:08;;;;;;;11.77;6.57;;;;;;;;;;5030435;28;20459;-86
2023/09/08 08:46:34;;;;;;;10.35;6.70;;;;;;;;;;5029198;28;20102;-84
2023/09/08 08:49:01;;;;;;;12.35;6.22;;;;;;;;;;5027667;28;20048;-84
2023/09/08 08:51:29;;;;;;;12.13;6.30;;;;;;;;;;5027615;28;20484;-84
2023/09/08 08:53:55;;;;;;;9.18;5.90;;;;;;;;;;5028730;28;20051;-85
2023/09/08 08:56:21;;;;;;;10.68;6.40;;;;;;;;;;5033895;28;20038;-85
2023/09/08 08:58:47;;;;;;;11.30;5.90;;;;;;;;;;5032385;28;20079;-85
2023/09/08 09:01:16;;;;;;;9.70;5.70;;;;;;;;;;5010259;28;20404;-85
2023/09/08 09:03:43;;;;;;;11.02;6.15;;;;;;;;;;5038116;28;20136;-85
2023/09/08 09:06:10;;;;;;;13.77;6.82;;;;;;;;;;5039810;28;20050;-84
2023/09/08 09:08:37;;;;;;;12.50;5.68;;;;;;;;;;5037105;28;20042;-83
2023/09/08 09:11:03;;;;;;;8.32;5.32;;;;;;;;;;5036485;28;20067;-84
2023/09/08 09:13:29;;;;;;;9.38;5.60;;;;;;;;;;5040623;28;20045;-84
2023/09/08 09:16:03;;;;;;;9.50;5.13;;;;;;;;;;5019973;28;20053;-84
2023/09/08 09:18:32;;;;;;;7.55;5.80;;;;;;;;;;5041152;28;20072;-85
2023/09/08 09:21:00;;;;;;;7.70;5.32;;;;;;;;;;5021870;28;20046;-85
2023/09/08 09:23:29;;;;;;;8.15;5.13;;;;;;;;;;5020971;28;20042;-84
2023/09/08 09:25:55;;;;;;;11.30;5.30;;;;;;;;;;5037476;28;20041;-85
2023/09/08 09:28:21;;;;;;;9.48;5.43;;;;;;;;;;5038844;28;20045;-84
2023/09/08 09:30:48;;;;;;;10.25;5.03;;;;;;;;;;5021081;28;20041;-84
2023/09/08 09:33:15;;;;;;;12.95;5.22;;;;;;;;;;5019338;28;20072;-84
2023/09/08 09:35:42;;;;;;;9.52;4.95;;;;;;;;;;5039195;28;20064;-84
2023/09/08 09:38:08;;;;;;;11.00;5.30;;;;;;;;;;5018240;28;20054;-84
2023/09/08 09:40:34;;;;;;;8.75;5.10;;;;;;;;;;5038502;28;20050;-84
2023/09/08 09:43:00;;;;;;;11.68;5.00;;;;;;;;;;5039402;28;20045;-84
2023/09/08 09:45:26;;;;;;;9.98;4.93;;;;;;;;;;5040582;28;20080;-84
2023/09/08 09:47:53;;;;;;;9.18;4.85;;;;;;;;;;5035748;28;20107;-84
2023/09/08 09:50:33;;;;;;;7.30;4.70;;;;;;;;;;5039050;28;20054;-84
2023/09/08 09:53:08;;;;;;;7.50;5.00;;;;;;;;;;5040773;28;20049;-84
2023/09/08 09:55:34;;;;;;;8.40;4.55;;;;;;;;;;5037055;28;20318;-84
2023/09/08 09:58:03;;;;;;;7.72;5.00;;;;;;;;;;5041134;28;20041;-84
2023/09/08 10:00:30;;;;;;;7.35;4.47;;;;;;;;;;5037912;28;20041;-84
2023/09/08 10:02:56;;;;;;;8.13;4.45;;;;;;;;;;5036489;28;20053;-84
2023/09/08 10:05:23;;;;;;;8.43;4.50;;;;;;;;;;5038993;28;20053;-83
2023/09/08 10:07:50;;;;;;;9.77;4.55;;;;;;;;;;5039728;28;20091;-82
2023/09/08 10:10:17;;;;;;;10.63;4.40;;;;;;;;;;5038932;28;20101;-82
2023/09/08 10:12:46;;;;;;;14.48;4.68;;;;;;;;;;5040887;28;20045;-83
2023/09/08 10:15:13;;;;;;;8.80;4.32;;;;;;;;;;5040039;28;20147;-82
2023/09/08 10:17:42;;;;;;;8.70;4.40;;;;;;;;;;5021410;28;20038;-83
2023/09/08 10:20:11;;;;;;;7.93;4.50;;;;;;;;;;5006635;28;20060;-83
2023/09/08 10:22:39;;;;;;;6.90;4.28;;;;;;;;;;5022007;28;20049;-83
2023/09/08 10:25:08;;;;;;;10.18;4.57;;;;;;;;;;5039286;28;20037;-83
2023/09/08 10:27:36;;;;;;;7.95;4.70;;;;;;;;;;5019978;28;20049;-84
2023/09/08 10:30:04;;;;;;;7.90;4.50;;;;;;;;;;5016608;28;20052;-83
2023/09/08 10:32:30;;;;;;;7.13;4.20;;;;;;;;;;5017421;28;20041;-82
2023/09/08 10:34:57;;;;;;;8.93;4.20;;;;;;;;;;5037956;28;20460;-84
2023/09/08 10:37:25;;;;;;;8.40;4.65;;;;;;;;;;5039352;28;20088;-82
2023/09/08 10:39:51;;;;;;;8.48;4.07;;;;;;;;;;5018106;28;20045;-83
2023/09/08 10:42:21;;;;;;;8.07;4.30;;;;;;;;;;5038348;28;20084;-83
2023/09/08 10:44:50;;;;;;;7.85;4.60;;;;;;;;;;5018511;28;20042;-83
2023/09/08 10:47:19;;;;;;;8.63;4.28;;;;;;;;;;5040174;28;20484;-84
2023/09/08 10:49:45;;;;;;;8.27;4.03;;;;;;;;;;5033125;28;20049;-83
2023/09/08 10:52:12;;;;;;;10.65;4.60;;;;;;;;;;5029365;28;20060;-83
2023/09/08 10:54:51;;;;;;;7.22;4.28;;;;;;;;;;5017552;28;20053;-83
2023/09/08 10:57:19;;;;;;;11.82;3.92;;;;;;;;;;5022081;28;20506;-83
2023/09/08 10:59:53;;;;;;;15.32;5.07;;;;;;;;;;5036870;28;20049;-84
2023/09/08 11:02:38;;;;;;;8.90;4.00;;;;;;;;;;5027416;28;20096;-85
2023/09/08 11:05:08;;;;;;;10.68;4.60;;;;;;;;;;5019400;28;20046;-83
2023/09/08 11:07:44;;;;;;;13.15;4.22;;;;;;;;;;5018354;28;20049;-83
2023/09/08 11:10:11;;;;;;;7.53;4.40;;;;;;;;;;5029036;28;20038;-83
2023/09/08 11:12:40;;;;;;;9.35;4.45;;;;;;;;;;5030000;28;20041;-83
2023/09/08 11:15:10;;;;;;;7.20;4.70;;;;;;;;;;5031362;28;20053;-83
2023/09/08 11:17:41;;;;;;;11.00;4.30;;;;;;;;;;5029916;28;20076;-84
2023/09/08 11:20:09;;;;;;;9.13;4.35;;;;;;;;;;5034379;28;20041;-84
2023/09/08 11:22:36;;;;;;;11.20;4.68;;;;;;;;;;5036435;28;20121;-85
2023/09/08 11:25:05;;;;;;;9.27;4.38;;;;;;;;;;5014763;28;20503;-84
2023/09/08 11:27:32;;;;;;;7.53;4.55;;;;;;;;;;5028833;28;20045;-84
2023/09/08 11:29:58;;;;;;;9.98;4.53;;;;;;;;;;5040104;28;20442;-83
2023/09/08 11:32:24;;;;;;;6.95;4.30;;;;;;;;;;5039755;28;20492;-83
2023/09/08 11:34:51;;;;;;;9.10;4.55;;;;;;;;;;5038781;28;20038;-85
2023/09/08 11:37:18;;;;;;;8.90;4.60;;;;;;;;;;5035152;28;20094;-83
2023/09/08 11:39:45;;;;;;;11.65;4.90;;;;;;;;;;5040603;28;20053;-84
2023/09/08 11:42:15;;;;;;;7.32;4.40;;;;;;;;;;5033514;28;20069;-83
2023/09/08 11:44:42;;;;;;;6.80;4.17;;;;;;;;;;5031831;28;20034;-83
2023/09/08 11:47:09;;;;;;;8.02;4.28;;;;;;;;;;5008879;28;20065;-83
2023/09/08 11:49:41;;;;;;;9.90;4.38;;;;;;;;;;5041850;28;20521;-83
2023/09/08 11:52:07;;;;;;;10.73;4.53;;;;;;;;;;5033981;28;20045;-83
2023/09/08 11:54:35;;;;;;;10.25;4.50;;;;;;;;;;5043220;28;20037;-83
2023/09/08 11:57:03;;;;;;;6.70;4.38;;;;;;;;;;5036128;28;20379;-83
2023/09/08 11:59:30;;;;;;;9.68;4.40;;;;;;;;;;4997902;28;20042;-83
2023/09/08 12:01:57;;;;;;;12.25;4.60;;;;;;;;;;5027421;28;20128;-83
2023/09/08 12:04:23;;;;;;;8.93;4.13;;;;;;;;;;5028273;28;20076;-83
2023/09/08 12:06:53;;;;;;;8.95;4.50;;;;;;;;;;5044133;28;20476;-82
2023/09/08 12:09:22;;;;;;;9.80;4.22;;;;;;;;;;5038446;28;20057;-81
2023/09/08 12:11:48;;;;;;;6.93;4.43;;;;;;;;;;5035201;28;20047;-81
2023/09/08 12:14:15;;;;;;;7.00;4.53;;;;;;;;;;5040852;28;20068;-82
2023/09/08 12:16:42;;;;;;;8.10;3.88;;;;;;;;;;5039324;28;20054;-82
2023/09/08 12:19:08;;;;;;;9.45;4.40;;;;;;;;;;5045817;28;20072;-82
2023/09/08 12:21:54;;;;;;;7.05;4.30;;;;;;;;;;5045958;28;20404;-81
2023/09/08 12:24:23;;;;;;;9.25;4.13;;;;;;;;;;5038132;28;20049;-83
2023/09/08 12:26:49;;;;;;;10.65;4.55;;;;;;;;;;5058980;28;20042;-83
2023/09/08 12:29:15;;;;;;;7.75;4.53;;;;;;;;;;5042833;28;20054;-83
2023/09/08 12:31:41;;;;;;;9.05;4.18;;;;;;;;;;5025730;28;20041;-83
2023/09/08 12:34:12;;;;;;;7.40;3.97;;;;;;;;;;5044505;28;20079;-82
2023/09/08 12:36:45;;;;;;;8.57;4.22;;;;;;;;;;5037070;28;20128;-83
2023/09/08 12:39:11;;;;;;;7.43;3.92;;;;;;;;;;5043888;28;20045;-83
2023/09/08 12:41:37;;;;;;;8.73;4.47;;;;;;;;;;5024251;28;20446;-87
2023/09/08 12:44:03;;;;;;;9.88;4.55;;;;;;;;;;5037576;28;20053;-84
2023/09/08 12:46:31;;;;;;;8.10;4.60;;;;;;;;;;5042906;28;20149;-81
2023/09/08 12:49:02;;;;;;;10.50;4.40;;;;;;;;;;5024140;28;20052;-83
2023/09/08 12:51:28;;;;;;;7.55;4.18;;;;;;;;;;5041234;28;20045;-83
2023/09/08 12:53:54;;;;;;;7.85;3.97;;;;;;;;;;5041967;28;20125;-84
2023/09/08 12:56:20;;;;;;;7.13;4.18;;;;;;;;;;5040187;28;20053;-83
2023/09/08 12:58:46;;;;;;;8.32;4.80;;;;;;;;;;5040632;28;20056;-85
2023/09/08 13:01:13;;;;;;;7.35;4.10;;;;;;;;;;5039983;28;20105;-83
2023/09/08 13:03:39;;;;;;;7.28;4.15;;;;;;;;;;5042292;28;20095;-83
2023/09/08 13:06:05;;;;;;;6.68;4.20;;;;;;;;;;5044266;28;20048;-83
2023/09/08 13:08:32;;;;;;;9.45;4.50;;;;;;;;;;5042802;28;20045;-82
2023/09/08 13:11:01;;;;;;;7.03;4.32;;;;;;;;;;5042758;28;20045;-83
2023/09/08 13:13:29;;;;;;;7.22;4.22;;;;;;;;;;5042658;28;20068;-84
2023/09/08 13:15:55;;;;;;;7.60;4.30;;;;;;;;;;5028319;28;20061;-81
2023/09/08 13:18:21;;;;;;;7.50;4.53;;;;;;;;;;5039443;28;20103;-83
2023/09/08 13:20:47;;;;;;;10.27;4.60;;;;;;;;;;5040803;28;20046;-83
2023/09/08 13:23:13;;;;;;;7.80;4.40;;;;;;;;;;5036816;28;20073;-83
2023/09/08 13:25:41;;;;;;;9.02;4.30;;;;;;;;;;5039493;28;20041;-83
2023/09/08 13:28:07;;;;;;;9.02;4.30;;;;;;;;;;5023854;28;20053;-83
2023/09/08 13:30:33;;;;;;;9.27;4.55;;;;;;;;;;5050904;28;20046;-82
2023/09/08 13:33:00;;;;;;;6.65;4.65;;;;;;;;;;5023529;28;20095;-84
2023/09/08 13:35:27;;;;;;;8.40;4.00;;;;;;;;;;5034586;28;20045;-84
2023/09/08 13:37:53;;;;;;;10.13;4.40;;;;;;;;;;5031255;28;20497;-83
2023/09/08 13:40:19;;;;;;;7.18;4.13;;;;;;;;;;5021374;28;20053;-84
2023/09/08 13:42:45;;;;;;;8.43;4.78;;;;;;;;;;5036209;28;20454;-84
2023/09/08 13:45:11;;;;;;;8.50;4.68;;;;;;;;;;5029188;28;20055;-84
2023/09/08 13:47:38;;;;;;;6.75;4.35;;;;;;;;;;5031954;28;20056;-82
2023/09/08 13:50:04;;;;;;;7.45;4.47;;;;;;;;;;5039576;28;20041;-81
2023/09/08 13:52:30;;;;;;;7.10;4.00;;;;;;;;;;5035760;28;20049;-84
2023/09/08 13:54:56;;;;;;;10.55;4.75;;;;;;;;;;5035410;28;20053;-83
2023/09/08 13:57:25;;;;;;;9.27;4.63;;;;;;;;;;5037090;28;20051;-83
2023/09/08 13:59:51;;;;;;;8.27;4.75;;;;;;;;;;5032151;28;20049;-83
2023/09/08 14:02:17;;;;;;;7.22;4.32;;;;;;;;;;5034086;28;20171;-81
2023/09/08 14:04:44;;;;;;;9.77;4.57;;;;;;;;;;5038322;28;20041;-82
2023/09/08 14:07:10;;;;;;;7.22;4.18;;;;;;;;;;5034765;28;20057;-83
2023/09/08 14:09:36;;;;;;;7.40;4.20;;;;;;;;;;5038029;28;20068;-82
2023/09/08 14:12:03;;;;;;;7.57;4.30;;;;;;;;;;5042273;28;20041;-82
2023/09/08 14:14:29;;;;;;;11.40;4.30;;;;;;;;;;5040346;28;20050;-82
2023/09/08 14:16:55;;;;;;;8.23;4.00;;;;;;;;;;5037916;28;20053;-84
2023/09/08 14:19:21;;;;;;;8.30;4.40;;;;;;;;;;5035506;28;20041;-82
2023/09/08 14:21:47;;;;;;;7.18;4.43;;;;;;;;;;5038157;28;20065;-81
2023/09/08 14:24:13;;;;;;;7.45;4.57;;;;;;;;;;5049361;28;20049;-81
2023/09/08 14:26:39;;;;;;;7.93;4.15;;;;;;;;;;5034720;28;20057;-82
2023/09/08 14:29:05;;;;;;;7.07;4.43;;;;;;;;;;5034728;28;20038;-81
2023/09/08 14:31:32;;;;;;;7.47;4.13;;;;;;;;;;5039607;28;20050;-82